sensor_id;sensor_type;location;lat;lon;timestamp;pressure;altitude;pressure_sealevel;temperature;humidity
55550;BME280;41397;49.972;18.944;2023-05-07T00:01:28;102045.89;;;16.26;65.27
55550;BME280;41397;49.972;18.944;2023-05-07T00:04:29;102048.65;;;16.26;65.15
55550;BME280;41397;49.972;18.944;2023-05-07T00:07:38;102050.54;;;16.25;65.40
55550;BME280;41397;49.972;18.944;2023-05-07T00:10:39;102050.69;;;16.24;65.24
55550;BME280;41397;49.972;18.944;2023-05-07T00:13:41;102050.05;;;16.20;65.61
55550;BME280;41397;49.972;18.944;2023-05-07T00:16:42;102058.97;;;16.24;65.85
55550;BME280;41397;49.972;18.944;2023-05-07T00:19:44;102053.45;;;16.24;65.83
55550;BME280;41397;49.972;18.944;2023-05-07T00:22:45;102038.89;;;16.22;65.74
55550;BME280;41397;49.972;18.944;2023-05-07T00:25:47;102048.05;;;16.22;65.51
55550;BME280;41397;49.972;18.944;2023-05-07T00:28:48;102052.43;;;16.25;65.63
55550;BME280;41397;49.972;18.944;2023-05-07T00:31:50;102050.69;;;16.24;65.52
55550;BME280;41397;49.972;18.944;2023-05-07T00:34:51;102051.08;;;16.19;65.60
55550;BME280;41397;49.972;18.944;2023-05-07T00:37:53;102057.60;;;16.18;65.69
55550;BME280;41397;49.972;18.944;2023-05-07T00:40:54;102059.73;;;16.14;65.78
55550;BME280;41397;49.972;18.944;2023-05-07T00:43:59;102055.34;;;16.12;65.73
55550;BME280;41397;49.972;18.944;2023-05-07T00:47:04;102064.66;;;16.11;65.42
55550;BME280;41397;49.972;18.944;2023-05-07T00:50:07;102064.16;;;16.06;65.51
55550;BME280;41397;49.972;18.944;2023-05-07T00:53:09;102068.66;;;16.07;65.60
55550;BME280;41397;49.972;18.944;2023-05-07T00:56:10;102067.19;;;16.03;65.55
55550;BME280;41397;49.972;18.944;2023-05-07T00:59:12;102072.22;;;15.97;65.78
55550;BME280;41397;49.972;18.944;2023-05-07T01:02:14;102069.98;;;15.91;65.74
55550;BME280;41397;49.972;18.944;2023-05-07T01:05:18;102063.10;;;15.86;65.59
55550;BME280;41397;49.972;18.944;2023-05-07T01:08:22;102063.24;;;15.73;66.00
55550;BME280;41397;49.972;18.944;2023-05-07T01:11:29;102070.38;;;15.75;65.62
55550;BME280;41397;49.972;18.944;2023-05-07T01:14:31;102063.99;;;15.75;65.92
55550;BME280;41397;49.972;18.944;2023-05-07T01:17:39;102069.77;;;15.72;65.85
55550;BME280;41397;49.972;18.944;2023-05-07T01:20:42;102064.87;;;15.75;66.04
55550;BME280;41397;49.972;18.944;2023-05-07T01:23:44;102077.64;;;15.76;65.85
55550;BME280;41397;49.972;18.944;2023-05-07T01:26:46;102070.49;;;15.74;65.76
55550;BME280;41397;49.972;18.944;2023-05-07T01:29:48;102067.63;;;15.75;65.68
55550;BME280;41397;49.972;18.944;2023-05-07T01:32:53;102064.59;;;15.67;65.91
55550;BME280;41397;49.972;18.944;2023-05-07T01:35:59;102067.99;;;15.71;65.86
55550;BME280;41397;49.972;18.944;2023-05-07T01:39:08;102064.25;;;15.72;66.08
55550;BME280;41397;49.972;18.944;2023-05-07T01:42:10;102062.37;;;15.72;65.94
55550;BME280;41397;49.972;18.944;2023-05-07T01:45:12;102068.76;;;15.73;65.76
55550;BME280;41397;49.972;18.944;2023-05-07T01:48:14;102064.87;;;15.75;65.91
55550;BME280;41397;49.972;18.944;2023-05-07T01:51:16;102064.98;;;15.74;65.76
55550;BME280;41397;49.972;18.944;2023-05-07T01:54:18;102061.23;;;15.75;65.56
55550;BME280;41397;49.972;18.944;2023-05-07T01:57:20;102062.22;;;15.74;65.61
55550;BME280;41397;49.972;18.944;2023-05-07T02:00:22;102069.88;;;15.70;65.92
55550;BME280;41397;49.972;18.944;2023-05-07T02:03:23;102067.88;;;15.72;66.03
55550;BME280;41397;49.972;18.944;2023-05-07T02:06:24;102068.14;;;15.69;65.86
55550;BME280;41397;49.972;18.944;2023-05-07T02:09:28;102075.55;;;15.69;66.06
55550;BME280;41397;49.972;18.944;2023-05-07T02:12:29;102074.41;;;15.71;65.93
55550;BME280;41397;49.972;18.944;2023-05-07T02:15:31;102066.25;;;15.70;65.69
55550;BME280;41397;49.972;18.944;2023-05-07T02:18:32;102083.68;;;15.70;65.76
55550;BME280;41397;49.972;18.944;2023-05-07T02:21:36;102079.52;;;15.65;65.93
55550;BME280;41397;49.972;18.944;2023-05-07T02:24:37;102074.00;;;15.65;65.82
55550;BME280;41397;49.972;18.944;2023-05-07T02:27:38;102073.24;;;15.63;65.84
55550;BME280;41397;49.972;18.944;2023-05-07T02:30:40;102074.26;;;15.62;65.71
55550;BME280;41397;49.972;18.944;2023-05-07T02:33:44;102089.07;;;15.61;65.67
55550;BME280;41397;49.972;18.944;2023-05-07T02:36:46;102075.13;;;15.62;65.72
55550;BME280;41397;49.972;18.944;2023-05-07T02:39:47;102077.02;;;15.62;65.50
55550;BME280;41397;49.972;18.944;2023-05-07T02:42:49;102078.90;;;15.61;65.29
55550;BME280;41397;49.972;18.944;2023-05-07T02:49:10;102083.05;;;15.56;65.40
55550;BME280;41397;49.972;18.944;2023-05-07T02:52:11;102079.42;;;15.55;65.42
55550;BME280;41397;49.972;18.944;2023-05-07T02:55:14;102077.79;;;15.52;64.96
55550;BME280;41397;49.972;18.944;2023-05-07T02:58:15;102082.04;;;15.45;65.09
55550;BME280;41397;49.972;18.944;2023-05-07T03:01:18;102081.93;;;15.47;65.05
55550;BME280;41397;49.972;18.944;2023-05-07T03:04:19;102081.78;;;15.48;64.90
55550;BME280;41397;49.972;18.944;2023-05-07T03:07:21;102075.77;;;15.43;64.61
55550;BME280;41397;49.972;18.944;2023-05-07T03:10:22;102087.05;;;15.40;64.71
55550;BME280;41397;49.972;18.944;2023-05-07T03:13:26;102085.31;;;15.39;64.78
55550;BME280;41397;49.972;18.944;2023-05-07T03:16:27;102090.56;;;15.42;64.45
55550;BME280;41397;49.972;18.944;2023-05-07T03:19:29;102089.95;;;15.39;64.17
55550;BME280;41397;49.972;18.944;2023-05-07T03:22:31;102097.20;;;15.40;64.30
55550;BME280;41397;49.972;18.944;2023-05-07T03:25:34;102099.34;;;15.36;64.63
55550;BME280;41397;49.972;18.944;2023-05-07T03:28:37;102102.83;;;15.38;64.52
55550;BME280;41397;49.972;18.944;2023-05-07T03:31:38;102108.34;;;15.38;64.80
55550;BME280;41397;49.972;18.944;2023-05-07T03:34:39;102110.48;;;15.35;65.04
55550;BME280;41397;49.972;18.944;2023-05-07T03:37:44;102111.23;;;15.37;64.72
55550;BME280;41397;49.972;18.944;2023-05-07T03:40:46;102112.88;;;15.39;64.87
55550;BME280;41397;49.972;18.944;2023-05-07T03:43:47;102112.98;;;15.38;64.88
55550;BME280;41397;49.972;18.944;2023-05-07T03:46:49;102113.13;;;15.36;64.97
55550;BME280;41397;49.972;18.944;2023-05-07T03:49:50;102111.60;;;15.32;64.99
55550;BME280;41397;49.972;18.944;2023-05-07T03:52:54;102116.11;;;15.33;64.98
55550;BME280;41397;49.972;18.944;2023-05-07T03:55:56;102117.26;;;15.30;65.10
55550;BME280;41397;49.972;18.944;2023-05-07T03:58:57;102134.53;;;15.32;65.55
55550;BME280;41397;49.972;18.944;2023-05-07T04:01:58;102132.27;;;15.26;65.29
55550;BME280;41397;49.972;18.944;2023-05-07T04:05:00;102131.91;;;15.31;65.16
55550;BME280;41397;49.972;18.944;2023-05-07T04:08:02;102130.03;;;15.31;65.16
55550;BME280;41397;49.972;18.944;2023-05-07T04:11:03;102127.63;;;15.27;65.12
55550;BME280;41397;49.972;18.944;2023-05-07T04:14:06;102149.57;;;15.28;65.11
55550;BME280;41397;49.972;18.944;2023-05-07T04:17:07;102150.44;;;15.29;65.03
55550;BME280;41397;49.972;18.944;2023-05-07T04:20:15;102146.80;;;15.28;65.13
55550;BME280;41397;49.972;18.944;2023-05-07T04:23:18;102158.95;;;15.26;65.07
55550;BME280;41397;49.972;18.944;2023-05-07T04:26:19;102151.57;;;15.26;64.76
55550;BME280;41397;49.972;18.944;2023-05-07T04:29:22;102159.07;;;15.24;64.42
55550;BME280;41397;49.972;18.944;2023-05-07T04:32:23;102164.72;;;15.23;64.82
55550;BME280;41397;49.972;18.944;2023-05-07T04:35:26;102176.62;;;15.23;64.64
55550;BME280;41397;49.972;18.944;2023-05-07T04:38:27;102174.88;;;15.22;64.48
55550;BME280;41397;49.972;18.944;2023-05-07T04:41:29;102182.13;;;15.23;64.61
55550;BME280;41397;49.972;18.944;2023-05-07T04:44:31;102182.99;;;15.24;64.53
55550;BME280;41397;49.972;18.944;2023-05-07T04:47:32;102192.38;;;15.21;64.42
55550;BME280;41397;49.972;18.944;2023-05-07T04:50:33;102190.64;;;15.20;64.86
55550;BME280;41397;49.972;18.944;2023-05-07T04:53:35;102195.29;;;15.20;65.11
55550;BME280;41397;49.972;18.944;2023-05-07T04:56:36;102195.98;;;15.10;65.44
55550;BME280;41397;49.972;18.944;2023-05-07T04:59:43;102206.24;;;15.08;65.45
55550;BME280;41397;49.972;18.944;2023-05-07T05:02:58;102208.51;;;15.03;65.60
55550;BME280;41397;49.972;18.944;2023-05-07T05:06:00;102212.14;;;15.04;65.88
55550;BME280;41397;49.972;18.944;2023-05-07T05:09:02;102215.66;;;15.06;65.71
55550;BME280;41397;49.972;18.944;2023-05-07T05:12:04;102207.74;;;15.01;65.78
55550;BME280;41397;49.972;18.944;2023-05-07T05:15:09;102215.13;;;15.01;65.73
55550;BME280;41397;49.972;18.944;2023-05-07T05:18:11;102221.28;;;15.04;65.55
55550;BME280;41397;49.972;18.944;2023-05-07T05:21:12;102215.13;;;15.01;65.50
55550;BME280;41397;49.972;18.944;2023-05-07T05:24:14;102229.02;;;14.99;65.52
55550;BME280;41397;49.972;18.944;2023-05-07T05:27:16;102218.87;;;15.00;65.74
55550;BME280;41397;49.972;18.944;2023-05-07T05:30:22;102231.77;;;14.99;65.53
55550;BME280;41397;49.972;18.944;2023-05-07T05:33:30;102237.29;;;14.99;65.71
55550;BME280;41397;49.972;18.944;2023-05-07T05:44:00;102247.43;;;14.75;65.40
55550;BME280;41397;49.972;18.944;2023-05-07T06:00:56;102259.45;;;14.74;65.31
55550;BME280;41397;49.972;18.944;2023-05-07T06:03:59;102249.95;;;14.78;65.10
55550;BME280;41397;49.972;18.944;2023-05-07T06:10:23;102264.83;;;14.75;65.17
55550;BME280;41397;49.972;18.944;2023-05-07T06:14:05;102263.80;;;14.65;65.34
55550;BME280;41397;49.972;18.944;2023-05-07T06:17:14;102273.80;;;14.66;65.16
55550;BME280;41397;49.972;18.944;2023-05-07T06:20:21;102277.13;;;14.58;65.36
55550;BME280;41397;49.972;18.944;2023-05-07T06:23:22;102275.48;;;14.56;65.43
55550;BME280;41397;49.972;18.944;2023-05-07T06:26:23;102285.19;;;14.49;65.11
55550;BME280;41397;49.972;18.944;2023-05-07T06:29:25;102287.02;;;14.48;65.31
55550;BME280;41397;49.972;18.944;2023-05-07T06:36:01;102281.34;;;14.38;65.03
55550;BME280;41397;49.972;18.944;2023-05-07T06:49:43;102288.13;;;14.58;64.19
55550;BME280;41397;49.972;18.944;2023-05-07T06:53:08;102298.51;;;14.55;63.92
55550;BME280;41397;49.972;18.944;2023-05-07T06:59:24;102312.38;;;14.53;64.45
55550;BME280;41397;49.972;18.944;2023-05-07T07:10:10;102311.95;;;14.34;64.86
55550;BME280;41397;49.972;18.944;2023-05-07T07:13:17;102322.55;;;14.14;65.30
55550;BME280;41397;49.972;18.944;2023-05-07T07:23:25;102329.51;;;13.94;66.07
55550;BME280;41397;49.972;18.944;2023-05-07T07:26:45;102338.71;;;13.93;65.90
55550;BME280;41397;49.972;18.944;2023-05-07T07:30:15;102328.07;;;13.89;65.91
55550;BME280;41397;49.972;18.944;2023-05-07T08:01:31;102374.34;;;13.29;66.68
55550;BME280;41397;49.972;18.944;2023-05-07T08:04:46;102378.66;;;13.19;66.75
55550;BME280;41397;49.972;18.944;2023-05-07T08:11:30;102380.98;;;13.40;66.03
55550;BME280;41397;49.972;18.944;2023-05-07T08:21:48;102393.20;;;13.48;65.38
55550;BME280;41397;49.972;18.944;2023-05-07T08:24:57;102390.12;;;13.53;65.43
55550;BME280;41397;49.972;18.944;2023-05-07T08:42:11;102423.20;;;13.24;64.95
55550;BME280;41397;49.972;18.944;2023-05-07T08:59:28;102447.87;;;13.26;64.58
55550;BME280;41397;49.972;18.944;2023-05-07T09:02:37;102435.59;;;13.31;64.63
55550;BME280;41397;49.972;18.944;2023-05-07T09:05:52;102440.75;;;13.36;64.62
55550;BME280;41397;49.972;18.944;2023-05-07T09:12:50;102434.44;;;13.48;63.17
55550;BME280;41397;49.972;18.944;2023-05-07T09:19:31;102437.96;;;13.50;63.01
55550;BME280;41397;49.972;18.944;2023-05-07T09:43:55;102469.47;;;13.45;62.69
55550;BME280;41397;49.972;18.944;2023-05-07T09:47:00;102473.28;;;13.57;63.26
55550;BME280;41397;49.972;18.944;2023-05-07T09:50:10;102472.22;;;13.45;62.94
55550;BME280;41397;49.972;18.944;2023-05-07T09:53:17;102482.34;;;13.44;62.54
55550;BME280;41397;49.972;18.944;2023-05-07T09:56:20;102482.34;;;13.44;62.44
55550;BME280;41397;49.972;18.944;2023-05-07T09:59:22;102476.02;;;13.57;62.18
55550;BME280;41397;49.972;18.944;2023-05-07T10:02:25;102480.10;;;13.64;62.33
55550;BME280;41397;49.972;18.944;2023-05-07T10:05:31;102476.17;;;13.68;62.30
55550;BME280;41397;49.972;18.944;2023-05-07T10:08:43;102479.49;;;13.73;61.63
55550;BME280;41397;49.972;18.944;2023-05-07T10:11:51;102498.48;;;13.63;60.84
55550;BME280;41397;49.972;18.944;2023-05-07T10:14:54;102491.58;;;13.43;61.45
55550;BME280;41397;49.972;18.944;2023-05-07T10:18:00;102501.52;;;13.31;61.61
55550;BME280;41397;49.972;18.944;2023-05-07T10:21:11;102501.99;;;13.38;61.66
55550;BME280;41397;49.972;18.944;2023-05-07T10:24:22;102503.28;;;13.32;61.52
55550;BME280;41397;49.972;18.944;2023-05-07T10:27:26;102505.82;;;13.36;61.18
55550;BME280;41397;49.972;18.944;2023-05-07T10:30:44;102507.95;;;13.45;61.14
55550;BME280;41397;49.972;18.944;2023-05-07T10:33:45;102510.44;;;13.35;61.04
55550;BME280;41397;49.972;18.944;2023-05-07T10:36:49;102516.23;;;13.30;61.50
55550;BME280;41397;49.972;18.944;2023-05-07T10:39:53;102527.54;;;13.26;62.02
55550;BME280;41397;49.972;18.944;2023-05-07T11:03:25;102532.10;;;13.25;61.72
55550;BME280;41397;49.972;18.944;2023-05-07T11:06:40;102532.10;;;13.25;61.73
55550;BME280;41397;49.972;18.944;2023-05-07T11:20:08;102537.55;;;13.27;61.28
55550;BME280;41397;49.972;18.944;2023-05-07T11:26:52;102542.81;;;12.87;62.35
55550;BME280;41397;49.972;18.944;2023-05-07T11:29:58;102540.75;;;12.76;62.55
55550;BME280;41397;49.972;18.944;2023-05-07T11:36:42;102536.56;;;12.85;62.83
55550;BME280;41397;49.972;18.944;2023-05-07T11:39:56;102554.00;;;12.98;63.03
55550;BME280;41397;49.972;18.944;2023-05-07T11:43:15;102557.53;;;12.86;62.34
55550;BME280;41397;49.972;18.944;2023-05-07T11:46:17;102554.20;;;12.95;62.29
55550;BME280;41397;49.972;18.944;2023-05-07T11:49:18;102555.55;;;12.74;62.65
55550;BME280;41397;49.972;18.944;2023-05-07T11:52:22;102562.63;;;12.78;62.69
55550;BME280;41397;49.972;18.944;2023-05-07T11:55:24;102561.03;;;12.74;63.22
55550;BME280;41397;49.972;18.944;2023-05-07T11:58:31;102570.27;;;12.73;63.09
55550;BME280;41397;49.972;18.944;2023-05-07T12:05:16;102568.12;;;12.78;62.35
55550;BME280;41397;49.972;18.944;2023-05-07T12:08:19;102563.13;;;12.84;62.40
55550;BME280;41397;49.972;18.944;2023-05-07T12:11:23;102567.45;;;12.88;62.24
55550;BME280;41397;49.972;18.944;2023-05-07T12:14:29;102571.27;;;12.72;62.46
55550;BME280;41397;49.972;18.944;2023-05-07T12:21:04;102575.96;;;12.84;62.34
55550;BME280;41397;49.972;18.944;2023-05-07T12:24:06;102578.11;;;12.79;62.86
55550;BME280;41397;49.972;18.944;2023-05-07T12:27:09;102589.49;;;12.73;62.72
55550;BME280;41397;49.972;18.944;2023-05-07T12:30:17;102588.41;;;12.75;62.82
55550;BME280;41397;49.972;18.944;2023-05-07T12:33:24;102582.64;;;12.80;62.80
55550;BME280;41397;49.972;18.944;2023-05-07T12:39:48;102591.09;;;12.91;62.78
55550;BME280;41397;49.972;18.944;2023-05-07T12:42:53;102585.48;;;12.93;62.60
55550;BME280;41397;49.972;18.944;2023-05-07T12:52:57;102593.32;;;12.84;62.65
55550;BME280;41397;49.972;18.944;2023-05-07T12:56:05;102608.31;;;12.79;62.72
55550;BME280;41397;49.972;18.944;2023-05-07T12:59:12;102605.73;;;12.61;63.17
55550;BME280;41397;49.972;18.944;2023-05-07T13:09:16;102613.94;;;12.47;64.10
55550;BME280;41397;49.972;18.944;2023-05-07T13:12:18;102613.71;;;12.36;64.28
55550;BME280;41397;49.972;18.944;2023-05-07T13:15:19;102604.03;;;12.44;64.40
55550;BME280;41397;49.972;18.944;2023-05-07T13:18:23;102607.42;;;12.64;64.00
55550;BME280;41397;49.972;18.944;2023-05-07T13:24:56;102611.42;;;12.58;63.58
55550;BME280;41397;49.972;18.944;2023-05-07T13:27:58;102617.30;;;12.52;63.76
55550;BME280;41397;49.972;18.944;2023-05-07T13:30:59;102616.19;;;12.25;63.95
55550;BME280;41397;49.972;18.944;2023-05-07T13:34:03;102611.13;;;12.33;64.17
55550;BME280;41397;49.972;18.944;2023-05-07T13:37:06;102606.59;;;12.48;64.11
55550;BME280;41397;49.972;18.944;2023-05-07T13:46:54;102607.49;;;12.62;63.11
55550;BME280;41397;49.972;18.944;2023-05-07T13:49:55;102615.05;;;12.59;63.00
55550;BME280;41397;49.972;18.944;2023-05-07T13:52:59;102611.61;;;12.55;62.87
55550;BME280;41397;49.972;18.944;2023-05-07T13:56:01;102595.05;;;12.71;62.55
55550;BME280;41397;49.972;18.944;2023-05-07T13:59:12;102599.16;;;12.50;62.28
55550;BME280;41397;49.972;18.944;2023-05-07T14:02:15;102604.81;;;12.47;62.25
55550;BME280;41397;49.972;18.944;2023-05-07T14:05:16;102618.18;;;12.53;62.38
55550;BME280;41397;49.972;18.944;2023-05-07T14:08:18;102613.04;;;12.47;62.31
55550;BME280;41397;49.972;18.944;2023-05-07T14:11:21;102626.26;;;12.40;62.59
55550;BME280;41397;49.972;18.944;2023-05-07T14:14:22;102627.00;;;12.28;62.79
55550;BME280;41397;49.972;18.944;2023-05-07T14:17:24;102621.41;;;12.29;62.87
55550;BME280;41397;49.972;18.944;2023-05-07T14:20:32;102627.05;;;12.42;62.60
55550;BME280;41397;49.972;18.944;2023-05-07T14:30:52;102634.57;;;12.38;62.14
55550;BME280;41397;49.972;18.944;2023-05-07T14:33:55;102642.64;;;12.41;61.63
55550;BME280;41397;49.972;18.944;2023-05-07T14:37:00;102644.85;;;12.35;62.62
55550;BME280;41397;49.972;18.944;2023-05-07T14:43:43;102651.97;;;12.23;62.42
55550;BME280;41397;49.972;18.944;2023-05-07T14:46:52;102659.51;;;12.04;62.89
55550;BME280;41397;49.972;18.944;2023-05-07T14:49:54;102672.17;;;12.06;62.77
55550;BME280;41397;49.972;18.944;2023-05-07T14:52:57;102663.20;;;12.18;63.01
55550;BME280;41397;49.972;18.944;2023-05-07T14:55:58;102660.01;;;12.26;62.61
55550;BME280;41397;49.972;18.944;2023-05-07T14:59:02;102666.63;;;12.22;62.57
55550;BME280;41397;49.972;18.944;2023-05-07T15:02:05;102667.88;;;12.16;62.35
55550;BME280;41397;49.972;18.944;2023-05-07T15:05:08;102660.28;;;12.21;62.11
55550;BME280;41397;49.972;18.944;2023-05-07T15:08:13;102671.86;;;12.11;62.08
55550;BME280;41397;49.972;18.944;2023-05-07T15:11:14;102681.18;;;11.92;62.55
55550;BME280;41397;49.972;18.944;2023-05-07T15:14:22;102672.05;;;12.08;62.70
55550;BME280;41397;49.972;18.944;2023-05-07T15:17:24;102672.17;;;12.06;62.75
55550;BME280;41397;49.972;18.944;2023-05-07T15:20:26;102680.27;;;12.08;62.33
55550;BME280;41397;49.972;18.944;2023-05-07T15:23:28;102687.55;;;11.93;62.56
55550;BME280;41397;49.972;18.944;2023-05-07T15:26:30;102682.33;;;12.04;62.65
55550;BME280;41397;49.972;18.944;2023-05-07T15:29:32;102679.59;;;12.04;62.43
55550;BME280;41397;49.972;18.944;2023-05-07T15:36:05;102691.62;;;12.17;62.24
55550;BME280;41397;49.972;18.944;2023-05-07T15:39:21;102685.83;;;12.22;62.13
55550;BME280;41397;49.972;18.944;2023-05-07T15:46:12;102691.05;;;12.27;62.18
55550;BME280;41397;49.972;18.944;2023-05-07T15:52:52;102690.26;;;12.25;62.34
55550;BME280;41397;49.972;18.944;2023-05-07T15:55:54;102693.38;;;12.18;62.22
55550;BME280;41397;49.972;18.944;2023-05-07T16:02:26;102690.45;;;12.21;62.19
55550;BME280;41397;49.972;18.944;2023-05-07T16:19:34;102700.41;;;11.75;63.31
55550;BME280;41397;49.972;18.944;2023-05-07T16:22:36;102713.74;;;11.81;62.90
55550;BME280;41397;49.972;18.944;2023-05-07T16:25:38;102697.92;;;11.70;63.28
55550;BME280;41397;49.972;18.944;2023-05-07T16:28:39;102712.80;;;11.82;63.20
55550;BME280;41397;49.972;18.944;2023-05-07T16:31:41;102699.00;;;11.68;63.49
55550;BME280;41397;49.972;18.944;2023-05-07T16:34:49;102691.19;;;11.60;63.86
55550;BME280;41397;49.972;18.944;2023-05-07T16:43:05;102701.69;;;11.52;64.57
55550;BME280;41397;49.972;18.944;2023-05-07T16:46:11;102709.80;;;11.53;64.47
55550;BME280;41397;49.972;18.944;2023-05-07T16:49:13;102699.78;;;11.37;65.23
55550;BME280;41397;49.972;18.944;2023-05-07T16:52:16;102702.19;;;11.43;65.05
55550;BME280;41397;49.972;18.944;2023-05-07T16:55:21;102710.87;;;11.51;68.72
55550;BME280;41397;49.972;18.944;2023-05-07T16:58:23;102721.05;;;11.65;64.90
55550;BME280;41397;49.972;18.944;2023-05-07T17:01:24;102721.12;;;11.47;65.29
55550;BME280;41397;49.972;18.944;2023-05-07T17:04:25;102716.81;;;11.59;65.05
55550;BME280;41397;49.972;18.944;2023-05-07T17:07:28;102711.46;;;11.73;64.60
55550;BME280;41397;49.972;18.944;2023-05-07T17:10:32;102725.48;;;11.67;64.35
55550;BME280;41397;49.972;18.944;2023-05-07T17:13:34;102726.23;;;11.71;64.60
55550;BME280;41397;49.972;18.944;2023-05-07T17:16:35;102721.45;;;11.74;64.81
55550;BME280;41397;49.972;18.944;2023-05-07T17:19:37;102728.05;;;11.88;64.32
55550;BME280;41397;49.972;18.944;2023-05-07T17:22:39;102726.19;;;11.88;63.96
55550;BME280;41397;49.972;18.944;2023-05-07T17:25:40;102727.95;;;11.89;63.86
55550;BME280;41397;49.972;18.944;2023-05-07T17:28:45;102729.25;;;11.82;63.87
55550;BME280;41397;49.972;18.944;2023-05-07T17:31:46;102733.11;;;11.95;63.66
55550;BME280;41397;49.972;18.944;2023-05-07T17:34:48;102735.03;;;11.93;63.55
55550;BME280;41397;49.972;18.944;2023-05-07T17:37:50;102739.33;;;11.82;63.59
55550;BME280;41397;49.972;18.944;2023-05-07T17:40:54;102743.54;;;11.71;63.94
55550;BME280;41397;49.972;18.944;2023-05-07T17:43:55;102740.80;;;11.71;63.72
55550;BME280;41397;49.972;18.944;2023-05-07T17:46:57;102740.25;;;11.65;64.04
55550;BME280;41397;49.972;18.944;2023-05-07T17:49:58;102749.70;;;11.59;63.88
55550;BME280;41397;49.972;18.944;2023-05-07T17:53:00;102744.85;;;11.64;63.81
55550;BME280;41397;49.972;18.944;2023-05-07T17:56:02;102755.49;;;11.70;63.55
55550;BME280;41397;49.972;18.944;2023-05-07T17:59:03;102749.63;;;11.61;63.42
55550;BME280;41397;49.972;18.944;2023-05-07T18:02:05;102750.84;;;11.55;63.52
55550;BME280;41397;49.972;18.944;2023-05-07T18:05:07;102756.91;;;11.44;63.76
55550;BME280;41397;49.972;18.944;2023-05-07T18:08:09;102751.67;;;11.40;63.95
55550;BME280;41397;49.972;18.944;2023-05-07T18:11:10;102755.79;;;11.31;64.23
55550;BME280;41397;49.972;18.944;2023-05-07T18:14:12;102755.08;;;11.27;64.49
55550;BME280;41397;49.972;18.944;2023-05-07T18:17:14;102752.75;;;11.20;64.16
55550;BME280;41397;49.972;18.944;2023-05-07T18:20:16;102767.54;;;11.16;64.31
55550;BME280;41397;49.972;18.944;2023-05-07T18:23:18;102758.05;;;11.23;63.93
55550;BME280;41397;49.972;18.944;2023-05-07T18:26:21;102764.80;;;11.16;64.41
55550;BME280;41397;49.972;18.944;2023-05-07T18:29:25;102776.26;;;11.06;64.40
55550;BME280;41397;49.972;18.944;2023-05-07T18:32:28;102769.80;;;11.07;64.15
55550;BME280;41397;49.972;18.944;2023-05-07T18:35:47;102774.72;;;11.18;63.88
55550;BME280;41397;49.972;18.944;2023-05-07T18:39:16;102767.90;;;11.27;63.56
55550;BME280;41397;49.972;18.944;2023-05-07T18:49:38;102775.94;;;11.13;63.74
55550;BME280;41397;49.972;18.944;2023-05-07T18:56:10;102781.02;;;11.20;64.30
55550;BME280;41397;49.972;18.944;2023-05-07T18:59:12;102784.08;;;11.14;63.95
55550;BME280;41397;49.972;18.944;2023-05-07T19:02:26;102778.10;;;11.23;64.06
55550;BME280;41397;49.972;18.944;2023-05-07T19:08:55;102805.66;;;11.20;63.83
55550;BME280;41397;49.972;18.944;2023-05-07T19:11:57;102777.87;;;11.28;64.00
55550;BME280;41397;49.972;18.944;2023-05-07T19:14:59;102790.66;;;11.10;64.03
55550;BME280;41397;49.972;18.944;2023-05-07T19:21:31;102797.34;;;10.87;64.67
55550;BME280;41397;49.972;18.944;2023-05-07T19:24:33;102792.30;;;10.97;64.74
55550;BME280;41397;49.972;18.944;2023-05-07T19:27:36;102807.25;;;10.89;65.02
55550;BME280;41397;49.972;18.944;2023-05-07T19:30:39;102811.59;;;10.94;65.25
55550;BME280;41397;49.972;18.944;2023-05-07T19:33:40;102807.19;;;11.08;64.57
55550;BME280;41397;49.972;18.944;2023-05-07T19:36:42;102807.27;;;11.07;64.76
55550;BME280;41397;49.972;18.944;2023-05-07T19:39:43;102805.01;;;10.98;64.94
55550;BME280;41397;49.972;18.944;2023-05-07T19:42:46;102809.67;;;10.96;65.25
55550;BME280;41397;49.972;18.944;2023-05-07T19:45:47;102810.38;;;10.82;65.56
55550;BME280;41397;49.972;18.944;2023-05-07T19:48:50;102817.88;;;10.96;65.49
55550;BME280;41397;49.972;18.944;2023-05-07T19:51:52;102818.70;;;10.98;65.21
55550;BME280;41397;49.972;18.944;2023-05-07T19:54:58;102842.52;;;10.96;64.92
55550;BME280;41397;49.972;18.944;2023-05-07T19:58:00;102832.88;;;10.88;64.92
55550;BME280;41397;49.972;18.944;2023-05-07T20:04:51;102823.67;;;10.89;64.71
55550;BME280;41397;49.972;18.944;2023-05-07T20:07:53;102814.75;;;10.86;64.87
55550;BME280;41397;49.972;18.944;2023-05-07T20:10:57;102821.91;;;10.88;64.55
55550;BME280;41397;49.972;18.944;2023-05-07T20:14:00;102855.36;;;10.76;65.17
55550;BME280;41397;49.972;18.944;2023-05-07T20:17:04;102821.86;;;10.71;65.15
55550;BME280;41397;49.972;18.944;2023-05-07T20:20:07;102824.76;;;10.68;65.52
55550;BME280;41397;49.972;18.944;2023-05-07T20:23:09;102816.92;;;10.60;66.06
55550;BME280;41397;49.972;18.944;2023-05-07T20:26:10;102820.85;;;10.55;66.27
55550;BME280;41397;49.972;18.944;2023-05-07T20:29:12;102821.14;;;10.68;65.85
55550;BME280;41397;49.972;18.944;2023-05-07T20:32:14;102822.02;;;10.68;65.80
55550;BME280;41397;49.972;18.944;2023-05-07T20:35:18;102828.21;;;10.72;65.79
55550;BME280;41397;49.972;18.944;2023-05-07T20:38:19;102834.13;;;10.81;65.64
55550;BME280;41397;49.972;18.944;2023-05-07T20:41:21;102844.36;;;10.78;65.55
55550;BME280;41397;49.972;18.944;2023-05-07T20:44:25;102846.30;;;10.93;65.31